This is the latest recevied weather packets stored in our database for station/object F6BIJ-13. If no packets are shown the sender has not sent any weather packets the latest 10 day(s).
| Time | Temp. | Humidity | Pressure | Rain* | Wind** | Luminosity | Snow |
|---|---|---|---|---|---|---|---|
| 1777890997 | 12.22° C | 95% | 1017.2 hPa | 3.56 mm | - | - | - |
| 1777889917 | 12.78° C | 96% | 1017.2 hPa | 2.54 mm | - | - | - |
| 1777889557 | 12.22° C | 95% | 1017.2 hPa | 2.29 mm | - | - | - |
| 1777889197 | 12.78° C | 95% | 1017.1 hPa | 2.29 mm | - | - | - |
| 1777888837 | 12.78° C | 95% | 1017.2 hPa | 2.29 mm | - | - | - |
| 1777888477 | 12.78° C | 95% | 1017.3 hPa | 2.79 mm | - | - | - |
| 1777887397 | 12.78° C | 95% | 1017.1 hPa | 3.81 mm | - | - | - |
| 1777887036 | 12.78° C | 95% | 1017.1 hPa | 3.56 mm | - | - | - |
| 1777886677 | 12.78° C | 95% | 1017 hPa | 3.56 mm | - | - | - |
| 1777886317 | 12.78° C | 95% | 1016.9 hPa | 3.3 mm | - | - | - |
| 1777885957 | 12.22° C | 94% | 1016.9 hPa | 2.79 mm | - | - | - |
| 1777885597 | 12.78° C | 94% | 1016.9 hPa | 2.54 mm | - | - | - |
| 1777885237 | 13.33° C | 94% | 1016.7 hPa | 1.78 mm | - | - | - |
| 1777884878 | 13.33° C | 94% | 1016.6 hPa | 1.78 mm | - | - | - |
| 1777884517 | 12.78° C | 94% | 1016.6 hPa | 2.29 mm | - | - | - |
| 1777880197 | 13.33° C | 95% | 1016.1 hPa | 0 mm | - | - | - |
| 1777879837 | 13.33° C | 95% | 1016 hPa | 0 mm | - | - | - |
| 1777879476 | 12.78° C | 95% | 1015.8 hPa | 0 mm | - | - | - |
| 1777879117 | 12.78° C | 95% | 1015.8 hPa | 0 mm | - | - | - |
| 1777878757 | 12.78° C | 95% | 1015.8 hPa | 0 mm | - | - | - |
| 1777878397 | 13.33° C | 95% | 1015.7 hPa | 0 mm | - | - | - |
| 1777876597 | 11.67° C | 96% | 1015.7 hPa | 0 mm | - | - | - |
| 1777876237 | 11.67° C | 95% | 1015.6 hPa | 0 mm | - | - | - |
| 1777875876 | 12.22° C | 96% | 1015.6 hPa | 0 mm | - | - | - |
| 1777875517 | 12.22° C | 96% | 1015.5 hPa | 0 mm | - | - | - |
* Rain latest 24 hours (hover to see other rain measurements)
** Current wind speed in m/s (hover to see current wind gust speed)